sensor_id;sensor_type;location;lat;lon;timestamp;pressure;altitude;pressure_sealevel;temperature;humidity
51359;BME280;37448;51.588;7.248;2023-02-21T00:00:50;101428.84;;;6.87;94.23
51359;BME280;37448;51.588;7.248;2023-02-21T00:03:09;101421.06;;;6.87;94.00
51359;BME280;37448;51.588;7.248;2023-02-21T00:05:28;101421.03;;;6.86;93.87
51359;BME280;37448;51.588;7.248;2023-02-21T00:07:47;101425.38;;;6.88;94.66
51359;BME280;37448;51.588;7.248;2023-02-21T00:10:07;101423.63;;;6.86;94.07
51359;BME280;37448;51.588;7.248;2023-02-21T00:12:26;101423.66;;;6.87;94.05
51359;BME280;37448;51.588;7.248;2023-02-21T00:14:45;101427.97;;;6.88;94.39
51359;BME280;37448;51.588;7.248;2023-02-21T00:17:04;101424.47;;;6.86;94.46
51359;BME280;37448;51.588;7.248;2023-02-21T00:19:23;101423.59;;;6.84;94.32
51359;BME280;37448;51.588;7.248;2023-02-21T00:21:42;101415.84;;;6.86;94.62
51359;BME280;37448;51.588;7.248;2023-02-21T00:24:00;101414.06;;;6.83;94.24
51359;BME280;37448;51.588;7.248;2023-02-21T00:26:21;101415.81;;;6.84;94.50
51359;BME280;37448;51.588;7.248;2023-02-21T00:28:40;101416.69;;;6.83;93.97
51359;BME280;37448;51.588;7.248;2023-02-21T00:30:59;101419.28;;;6.85;94.80
51359;BME280;37448;51.588;7.248;2023-02-21T00:33:18;101421.06;;;6.87;94.58
51359;BME280;37448;51.588;7.248;2023-02-21T00:35:37;101415.81;;;6.84;93.81
51359;BME280;37448;51.588;7.248;2023-02-21T00:37:56;101427.94;;;6.85;94.04
51359;BME280;37448;51.588;7.248;2023-02-21T00:40:16;101425.34;;;6.85;94.28
51359;BME280;37448;51.588;7.248;2023-02-21T00:42:35;101421.88;;;6.86;94.66
51359;BME280;37448;51.588;7.248;2023-02-21T00:44:54;101425.34;;;6.85;93.88
51359;BME280;37448;51.588;7.248;2023-02-21T00:47:12;101419.31;;;6.88;94.61
51359;BME280;37448;51.588;7.248;2023-02-21T00:49:32;101423.59;;;6.84;94.52
51359;BME280;37448;51.588;7.248;2023-02-21T00:51:50;101419.28;;;6.83;93.95
51359;BME280;37448;51.588;7.248;2023-02-21T00:54:10;101424.50;;;6.85;94.24
51359;BME280;37448;51.588;7.248;2023-02-21T00:56:28;101412.34;;;6.82;94.27
51359;BME280;37448;51.588;7.248;2023-02-21T00:58:48;101413.22;;;6.84;94.67
51359;BME280;37448;51.588;7.248;2023-02-21T01:01:07;101408.88;;;6.80;94.11
51359;BME280;37448;51.588;7.248;2023-02-21T01:03:25;101418.41;;;6.84;94.48
51359;BME280;37448;51.588;7.248;2023-02-21T01:05:45;101409.72;;;6.79;94.20
51359;BME280;37448;51.588;7.248;2023-02-21T01:08:04;101397.63;;;6.84;94.93
51359;BME280;37448;51.588;7.248;2023-02-21T01:10:23;101401.09;;;6.83;94.62
51359;BME280;37448;51.588;7.248;2023-02-21T01:12:42;101392.44;;;6.84;94.69
51359;BME280;37448;51.588;7.248;2023-02-21T01:15:01;101395.03;;;6.84;95.04
51359;BME280;37448;51.588;7.248;2023-02-21T01:17:20;101396.78;;;6.85;94.86
51359;BME280;37448;51.588;7.248;2023-02-21T01:19:41;101396.78;;;6.84;94.45
51359;BME280;37448;51.588;7.248;2023-02-21T01:22:02;101385.50;;;6.83;94.89
51359;BME280;37448;51.588;7.248;2023-02-21T01:24:21;101386.38;;;6.82;94.47
51359;BME280;37448;51.588;7.248;2023-02-21T01:26:40;101383.75;;;6.79;94.42
51359;BME280;37448;51.588;7.248;2023-02-21T01:29:00;101378.59;;;6.82;94.53
51359;BME280;37448;51.588;7.248;2023-02-21T01:31:19;101380.34;;;6.85;95.16
51359;BME280;37448;51.588;7.248;2023-02-21T01:33:40;101381.22;;;6.84;94.79
51359;BME280;37448;51.588;7.248;2023-02-21T01:35:59;101388.13;;;6.83;95.16
51359;BME280;37448;51.588;7.248;2023-02-21T01:38:18;101389.84;;;6.84;94.84
51359;BME280;37448;51.588;7.248;2023-02-21T01:40:37;101383.78;;;6.85;95.09
51359;BME280;37448;51.588;7.248;2023-02-21T01:42:57;101382.91;;;6.80;94.86
51359;BME280;37448;51.588;7.248;2023-02-21T01:47:39;101392.44;;;6.81;95.01
51359;BME280;37448;51.588;7.248;2023-02-21T01:50:00;101383.81;;;6.84;95.16
51359;BME280;37448;51.588;7.248;2023-02-21T01:52:21;101384.66;;;6.83;95.40
51359;BME280;37448;51.588;7.248;2023-02-21T01:54:47;101383.78;;;6.82;94.88
51359;BME280;37448;51.588;7.248;2023-02-21T01:57:07;101383.75;;;6.79;94.70
51359;BME280;37448;51.588;7.248;2023-02-21T01:59:27;101383.78;;;6.82;95.08
51359;BME280;37448;51.588;7.248;2023-02-21T02:01:48;101377.72;;;6.83;95.42
51359;BME280;37448;51.588;7.248;2023-02-21T02:04:09;101382.03;;;6.81;95.31
51359;BME280;37448;51.588;7.248;2023-02-21T02:06:28;101384.66;;;6.83;95.66
51359;BME280;37448;51.588;7.248;2023-02-21T02:08:47;101382.03;;;6.81;95.06
51359;BME280;37448;51.588;7.248;2023-02-21T02:14:19;101390.69;;;6.80;95.43
51359;BME280;37448;51.588;7.248;2023-02-21T02:16:13;101388.97;;;6.79;95.42
51359;BME280;37448;51.588;7.248;2023-02-21T02:18:28;101392.44;;;6.81;95.61
51359;BME280;37448;51.588;7.248;2023-02-21T02:25:27;101377.72;;;6.80;95.59
51359;BME280;37448;51.588;7.248;2023-02-21T02:27:40;101378.56;;;6.79;95.75
51359;BME280;37448;51.588;7.248;2023-02-21T02:29:47;101369.06;;;6.78;95.47
51359;BME280;37448;51.588;7.248;2023-02-21T02:40:04;101363.00;;;6.79;96.31
51359;BME280;37448;51.588;7.248;2023-02-21T02:44:19;101366.44;;;6.75;95.38
51359;BME280;37448;51.588;7.248;2023-02-21T02:46:29;101356.06;;;6.78;96.27
51359;BME280;37448;51.588;7.248;2023-02-21T02:48:40;101362.16;;;6.79;95.67
51359;BME280;37448;51.588;7.248;2023-02-21T02:50:45;101363.88;;;6.80;96.03
51359;BME280;37448;51.588;7.248;2023-02-21T02:52:53;101369.91;;;6.77;95.80
51359;BME280;37448;51.588;7.248;2023-02-21T02:55:05;101373.41;;;6.78;95.82
51359;BME280;37448;51.588;7.248;2023-02-21T02:57:20;101375.13;;;6.75;96.05
51359;BME280;37448;51.588;7.248;2023-02-21T02:59:22;101376.00;;;6.78;96.00
51359;BME280;37448;51.588;7.248;2023-02-21T03:04:01;101369.06;;;6.77;96.19
51359;BME280;37448;51.588;7.248;2023-02-21T03:08:32;101371.63;;;6.75;95.99
51359;BME280;37448;51.588;7.248;2023-02-21T03:10:41;101368.16;;;6.74;96.10
51359;BME280;37448;51.588;7.248;2023-02-21T03:13:11;101371.63;;;6.75;96.03
51359;BME280;37448;51.588;7.248;2023-02-21T03:17:19;101366.44;;;6.72;95.83
51359;BME280;37448;51.588;7.248;2023-02-21T03:19:30;101382.00;;;6.75;96.26
51359;BME280;37448;51.588;7.248;2023-02-21T03:21:40;101376.81;;;6.73;96.45
51359;BME280;37448;51.588;7.248;2023-02-21T03:23:43;101382.88;;;6.74;96.04
51359;BME280;37448;51.588;7.248;2023-02-21T03:25:46;101372.50;;;6.74;95.87
51359;BME280;37448;51.588;7.248;2023-02-21T03:27:50;101374.19;;;6.73;96.15
51359;BME280;37448;51.588;7.248;2023-02-21T03:30:00;101373.31;;;6.65;95.99
51359;BME280;37448;51.588;7.248;2023-02-21T03:32:09;101370.72;;;6.68;96.10
51359;BME280;37448;51.588;7.248;2023-02-21T03:34:11;101370.75;;;6.73;95.88
51359;BME280;37448;51.588;7.248;2023-02-21T03:36:13;101373.34;;;6.73;96.18
51359;BME280;37448;51.588;7.248;2023-02-21T03:38:14;101375.09;;;6.74;96.60
51359;BME280;37448;51.588;7.248;2023-02-21T03:40:36;101375.06;;;6.71;96.10
51359;BME280;37448;51.588;7.248;2023-02-21T03:42:36;101369.88;;;6.71;96.09
51359;BME280;37448;51.588;7.248;2023-02-21T03:44:37;101375.06;;;6.71;96.01
51359;BME280;37448;51.588;7.248;2023-02-21T03:46:38;101365.56;;;6.73;95.91
51359;BME280;37448;51.588;7.248;2023-02-21T03:48:38;101365.53;;;6.71;96.35
51359;BME280;37448;51.588;7.248;2023-02-21T03:51:01;101365.56;;;6.70;96.20
51359;BME280;37448;51.588;7.248;2023-02-21T03:53:08;101367.31;;;6.74;96.29
51359;BME280;37448;51.588;7.248;2023-02-21T03:55:09;101356.88;;;6.69;96.05
51359;BME280;37448;51.588;7.248;2023-02-21T03:57:09;101360.38;;;6.73;96.15
51359;BME280;37448;51.588;7.248;2023-02-21T03:59:15;101365.56;;;6.70;96.06
51359;BME280;37448;51.588;7.248;2023-02-21T04:01:15;101357.75;;;6.71;95.77
51359;BME280;37448;51.588;7.248;2023-02-21T04:03:16;101357.75;;;6.70;96.03
51359;BME280;37448;51.588;7.248;2023-02-21T04:05:23;101352.59;;;6.73;96.01
51359;BME280;37448;51.588;7.248;2023-02-21T04:07:24;101353.44;;;6.70;96.16
51359;BME280;37448;51.588;7.248;2023-02-21T04:09:24;101361.22;;;6.72;96.26
51359;BME280;37448;51.588;7.248;2023-02-21T04:11:26;101365.56;;;6.73;96.26
51359;BME280;37448;51.588;7.248;2023-02-21T04:13:27;101361.22;;;6.72;95.94
51359;BME280;37448;51.588;7.248;2023-02-21T04:15:29;101373.34;;;6.73;96.14
51359;BME280;37448;51.588;7.248;2023-02-21T04:17:29;101367.25;;;6.69;95.74
51359;BME280;37448;51.588;7.248;2023-02-21T04:19:31;101370.72;;;6.71;96.11
51359;BME280;37448;51.588;7.248;2023-02-21T04:21:32;101364.69;;;6.71;96.17
51359;BME280;37448;51.588;7.248;2023-02-21T04:23:34;101362.97;;;6.70;96.34
51359;BME280;37448;51.588;7.248;2023-02-21T04:25:34;101364.63;;;6.63;95.32
51359;BME280;37448;51.588;7.248;2023-02-21T04:27:39;101363.81;;;6.66;95.55
51359;BME280;37448;51.588;7.248;2023-02-21T04:29:40;101356.00;;;6.66;95.80
51359;BME280;37448;51.588;7.248;2023-02-21T04:31:40;101361.19;;;6.67;96.02
51359;BME280;37448;51.588;7.248;2023-02-21T04:33:45;101357.75;;;6.67;95.56
51359;BME280;37448;51.588;7.248;2023-02-21T04:35:49;101361.22;;;6.69;96.05
51359;BME280;37448;51.588;7.248;2023-02-21T04:37:58;101359.47;;;6.68;96.19
51359;BME280;37448;51.588;7.248;2023-02-21T04:39:58;101362.94;;;6.67;95.66
51359;BME280;37448;51.588;7.248;2023-02-21T04:41:59;101364.69;;;6.68;96.03
51359;BME280;37448;51.588;7.248;2023-02-21T04:43:59;101362.94;;;6.67;96.01
51359;BME280;37448;51.588;7.248;2023-02-21T04:46:00;101366.38;;;6.67;95.92
51359;BME280;37448;51.588;7.248;2023-02-21T04:48:00;101362.06;;;6.66;95.23
51359;BME280;37448;51.588;7.248;2023-02-21T04:50:01;101361.22;;;6.66;95.88
51359;BME280;37448;51.588;7.248;2023-02-21T04:52:01;101359.44;;;6.63;95.95
51359;BME280;37448;51.588;7.248;2023-02-21T04:54:01;101352.53;;;6.64;96.01
51359;BME280;37448;51.588;7.248;2023-02-21T04:56:02;101356.88;;;6.65;96.13
51359;BME280;37448;51.588;7.248;2023-02-21T04:58:03;101362.94;;;6.64;95.83
51359;BME280;37448;51.588;7.248;2023-02-21T05:00:03;101359.47;;;6.65;96.08
51359;BME280;37448;51.588;7.248;2023-02-21T05:02:07;101361.16;;;6.63;96.20
51359;BME280;37448;51.588;7.248;2023-02-21T05:04:08;101355.94;;;6.59;95.93
51359;BME280;37448;51.588;7.248;2023-02-21T05:06:08;101352.50;;;6.59;95.93
51359;BME280;37448;51.588;7.248;2023-02-21T05:08:09;101352.50;;;6.60;96.07
51359;BME280;37448;51.588;7.248;2023-02-21T05:10:09;101362.00;;;6.61;96.22
51359;BME280;37448;51.588;7.248;2023-02-21T05:12:10;101357.69;;;6.60;96.16
51359;BME280;37448;51.588;7.248;2023-02-21T05:14:11;101361.13;;;6.59;96.42
51359;BME280;37448;51.588;7.248;2023-02-21T05:16:11;101354.22;;;6.58;96.35
51359;BME280;37448;51.588;7.248;2023-02-21T05:18:12;101357.66;;;6.54;96.07
51359;BME280;37448;51.588;7.248;2023-02-21T05:20:12;101357.66;;;6.54;96.36
51359;BME280;37448;51.588;7.248;2023-02-21T05:22:13;101355.09;;;6.56;96.55
51359;BME280;37448;51.588;7.248;2023-02-21T05:24:13;101361.13;;;6.56;96.87
51359;BME280;37448;51.588;7.248;2023-02-21T05:26:13;101369.78;;;6.55;96.63
51359;BME280;37448;51.588;7.248;2023-02-21T05:28:14;101365.47;;;6.56;96.56
51359;BME280;37448;51.588;7.248;2023-02-21T05:30:16;101368.94;;;6.58;96.93
51359;BME280;37448;51.588;7.248;2023-02-21T05:32:19;101365.44;;;6.53;96.91
51359;BME280;37448;51.588;7.248;2023-02-21T05:34:19;101374.97;;;6.55;97.03
51359;BME280;37448;51.588;7.248;2023-02-21T05:36:20;101370.66;;;6.56;96.99
51359;BME280;37448;51.588;7.248;2023-02-21T05:38:24;101370.66;;;6.56;96.93
51359;BME280;37448;51.588;7.248;2023-02-21T05:40:25;101366.28;;;6.53;97.07
51359;BME280;37448;51.588;7.248;2023-02-21T05:42:25;101366.31;;;6.52;97.10
51359;BME280;37448;51.588;7.248;2023-02-21T05:44:26;101380.13;;;6.52;97.05
51359;BME280;37448;51.588;7.248;2023-02-21T05:46:32;101377.56;;;6.55;97.00
51359;BME280;37448;51.588;7.248;2023-02-21T05:48:32;101374.09;;;6.52;97.27
51359;BME280;37448;51.588;7.248;2023-02-21T05:50:33;101365.44;;;6.54;97.21
51359;BME280;37448;51.588;7.248;2023-02-21T05:52:33;101370.63;;;6.53;97.52
51359;BME280;37448;51.588;7.248;2023-02-21T05:54:34;101363.69;;;6.50;97.40
51359;BME280;37448;51.588;7.248;2023-02-21T05:56:38;101361.13;;;6.52;97.69
51359;BME280;37448;51.588;7.248;2023-02-21T05:58:39;101359.38;;;6.52;97.66
51359;BME280;37448;51.588;7.248;2023-02-21T06:00:40;101362.81;;;6.48;97.46
51359;BME280;37448;51.588;7.248;2023-02-21T06:02:40;101351.56;;;6.51;97.45
51359;BME280;37448;51.588;7.248;2023-02-21T06:04:40;101353.28;;;6.49;97.35
51359;BME280;37448;51.588;7.248;2023-02-21T06:06:41;101348.97;;;6.49;97.59
51359;BME280;37448;51.588;7.248;2023-02-21T06:08:46;101348.97;;;6.46;97.41
51359;BME280;37448;51.588;7.248;2023-02-21T06:10:47;101353.28;;;6.47;97.69
51359;BME280;37448;51.588;7.248;2023-02-21T06:12:48;101350.69;;;6.47;97.61
51359;BME280;37448;51.588;7.248;2023-02-21T06:14:48;101350.69;;;6.47;98.00
51359;BME280;37448;51.588;7.248;2023-02-21T06:16:48;101347.22;;;6.46;97.84
51359;BME280;37448;51.588;7.248;2023-02-21T06:18:55;101338.56;;;6.43;98.01
51359;BME280;37448;51.588;7.248;2023-02-21T06:20:55;101342.03;;;6.45;97.55
51359;BME280;37448;51.588;7.248;2023-02-21T06:22:56;101347.22;;;6.42;98.14
51359;BME280;37448;51.588;7.248;2023-02-21T06:24:56;101342.88;;;6.42;98.00
51359;BME280;37448;51.588;7.248;2023-02-21T06:26:56;101343.72;;;6.40;98.06
51359;BME280;37448;51.588;7.248;2023-02-21T06:28:57;101340.22;;;6.38;97.84
51359;BME280;37448;51.588;7.248;2023-02-21T06:30:57;101341.94;;;6.36;97.82
51359;BME280;37448;51.588;7.248;2023-02-21T06:32:58;101344.56;;;6.39;98.02
51359;BME280;37448;51.588;7.248;2023-02-21T06:34:58;101338.47;;;6.34;97.75
51359;BME280;37448;51.588;7.248;2023-02-21T06:36:59;101343.69;;;6.37;97.81
51359;BME280;37448;51.588;7.248;2023-02-21T06:38:59;101344.53;;;6.32;98.28
51359;BME280;37448;51.588;7.248;2023-02-21T06:41:04;101342.81;;;6.35;98.08
51359;BME280;37448;51.588;7.248;2023-02-21T06:43:05;101348.00;;;6.35;98.25
51359;BME280;37448;51.588;7.248;2023-02-21T06:45:06;101352.31;;;6.36;98.20
51359;BME280;37448;51.588;7.248;2023-02-21T06:47:06;101345.38;;;6.31;98.10
51359;BME280;37448;51.588;7.248;2023-02-21T06:49:07;101349.69;;;6.28;98.11
51359;BME280;37448;51.588;7.248;2023-02-21T06:51:08;101339.28;;;6.25;97.67
51359;BME280;37448;51.588;7.248;2023-02-21T06:53:10;101343.63;;;6.27;98.06
51359;BME280;37448;51.588;7.248;2023-02-21T06:55:10;101352.28;;;6.29;97.95
51359;BME280;37448;51.588;7.248;2023-02-21T06:57:11;101358.31;;;6.27;97.69
51359;BME280;37448;51.588;7.248;2023-02-21T06:59:11;101354.84;;;6.25;97.55
51359;BME280;37448;51.588;7.248;2023-02-21T07:01:11;101352.28;;;6.26;98.25
51359;BME280;37448;51.588;7.248;2023-02-21T07:03:12;101347.97;;;6.31;97.70
51359;BME280;37448;51.588;7.248;2023-02-21T07:05:12;101354.00;;;6.27;97.97
51359;BME280;37448;51.588;7.248;2023-02-21T07:07:15;101354.00;;;6.27;98.04
51359;BME280;37448;51.588;7.248;2023-02-21T07:09:16;101359.22;;;6.30;98.17
51359;BME280;37448;51.588;7.248;2023-02-21T07:11:17;101360.94;;;6.31;98.08
51359;BME280;37448;51.588;7.248;2023-02-21T07:13:17;101362.66;;;6.29;97.99
51359;BME280;37448;51.588;7.248;2023-02-21T07:15:18;101362.69;;;6.31;98.05
51359;BME280;37448;51.588;7.248;2023-02-21T07:17:19;101360.94;;;6.31;98.12
51359;BME280;37448;51.588;7.248;2023-02-21T07:19:19;101360.09;;;6.32;98.45
51359;BME280;37448;51.588;7.248;2023-02-21T07:21:20;101365.25;;;6.28;97.82
51359;BME280;37448;51.588;7.248;2023-02-21T07:23:20;101362.66;;;6.29;97.77
51359;BME280;37448;51.588;7.248;2023-02-21T07:25:21;101364.41;;;6.30;98.00
51359;BME280;37448;51.588;7.248;2023-02-21T07:27:22;101365.31;;;6.34;98.13
51359;BME280;37448;51.588;7.248;2023-02-21T07:29:22;101367.91;;;6.39;98.80
51359;BME280;37448;51.588;7.248;2023-02-21T07:31:23;101370.50;;;6.37;98.49
51359;BME280;37448;51.588;7.248;2023-02-21T07:33:24;101367.03;;;6.35;98.02
51359;BME280;37448;51.588;7.248;2023-02-21T07:35:24;101373.09;;;6.36;98.29
51359;BME280;37448;51.588;7.248;2023-02-21T07:37:24;101369.63;;;6.34;98.15
51359;BME280;37448;51.588;7.248;2023-02-21T07:39:26;101367.00;;;6.34;98.12
51359;BME280;37448;51.588;7.248;2023-02-21T07:41:26;101373.94;;;6.33;98.25
51359;BME280;37448;51.588;7.248;2023-02-21T07:43:28;101373.09;;;6.39;98.53
51359;BME280;37448;51.588;7.248;2023-02-21T07:45:29;101366.22;;;6.41;98.27
51359;BME280;37448;51.588;7.248;2023-02-21T07:47:29;101368.78;;;6.39;98.23
51359;BME280;37448;51.588;7.248;2023-02-21T07:49:29;101366.19;;;6.39;98.21
51359;BME280;37448;51.588;7.248;2023-02-21T07:51:30;101374.88;;;6.40;97.92
51359;BME280;37448;51.588;7.248;2023-02-21T07:53:31;101368.81;;;6.41;98.39
51359;BME280;37448;51.588;7.248;2023-02-21T07:55:31;101364.50;;;6.43;98.39
51359;BME280;37448;51.588;7.248;2023-02-21T07:57:32;101366.25;;;6.44;98.75
51359;BME280;37448;51.588;7.248;2023-02-21T07:59:32;101365.38;;;6.43;98.17
51359;BME280;37448;51.588;7.248;2023-02-21T08:01:33;101366.22;;;6.41;98.01
51359;BME280;37448;51.588;7.248;2023-02-21T08:03:33;101368.78;;;6.38;97.77
51359;BME280;37448;51.588;7.248;2023-02-21T08:05:33;101369.63;;;6.37;97.92
51359;BME280;37448;51.588;7.248;2023-02-21T08:07:34;101374.88;;;6.43;98.09
51359;BME280;37448;51.588;7.248;2023-02-21T08:09:35;101379.19;;;6.42;97.89
51359;BME280;37448;51.588;7.248;2023-02-21T08:11:35;101371.44;;;6.44;97.92
51359;BME280;37448;51.588;7.248;2023-02-21T08:13:36;101369.69;;;6.43;98.02
51359;BME280;37448;51.588;7.248;2023-02-21T08:15:36;101377.47;;;6.43;97.82
51359;BME280;37448;51.588;7.248;2023-02-21T08:17:36;101378.34;;;6.45;97.79
51359;BME280;37448;51.588;7.248;2023-02-21T08:19:37;101376.63;;;6.45;97.83
51359;BME280;37448;51.588;7.248;2023-02-21T08:21:37;101377.50;;;6.46;97.74
51359;BME280;37448;51.588;7.248;2023-02-21T08:23:37;101387.03;;;6.47;97.95
51359;BME280;37448;51.588;7.248;2023-02-21T08:25:38;101380.06;;;6.44;97.76
51359;BME280;37448;51.588;7.248;2023-02-21T08:27:39;101389.56;;;6.39;98.02
51359;BME280;37448;51.588;7.248;2023-02-21T08:29:40;101380.06;;;6.43;97.75
51359;BME280;37448;51.588;7.248;2023-02-21T08:31:40;101375.75;;;6.43;97.87
51359;BME280;37448;51.588;7.248;2023-02-21T08:33:41;101374.91;;;6.46;98.34
51359;BME280;37448;51.588;7.248;2023-02-21T08:35:41;101369.72;;;6.46;98.10
51359;BME280;37448;51.588;7.248;2023-02-21T08:37:46;101373.19;;;6.48;97.61
51359;BME280;37448;51.588;7.248;2023-02-21T08:39:50;101370.56;;;6.45;97.79
51359;BME280;37448;51.588;7.248;2023-02-21T08:41:51;101364.53;;;6.49;97.87
51359;BME280;37448;51.588;7.248;2023-02-21T08:43:52;101367.09;;;6.43;97.78
51359;BME280;37448;51.588;7.248;2023-02-21T08:45:53;101362.81;;;6.48;98.00
51359;BME280;37448;51.588;7.248;2023-02-21T08:47:54;101369.69;;;6.43;97.62
51359;BME280;37448;51.588;7.248;2023-02-21T08:49:54;101365.38;;;6.46;98.05
51359;BME280;37448;51.588;7.248;2023-02-21T08:51:54;101368.00;;;6.48;97.93
51359;BME280;37448;51.588;7.248;2023-02-21T08:53:55;101362.81;;;6.48;98.08
51359;BME280;37448;51.588;7.248;2023-02-21T08:55:55;101360.16;;;6.43;97.75
51359;BME280;37448;51.588;7.248;2023-02-21T08:57:55;101362.78;;;6.45;97.94
51359;BME280;37448;51.588;7.248;2023-02-21T08:59:56;101367.97;;;6.42;97.68
51359;BME280;37448;51.588;7.248;2023-02-21T09:01:56;101370.56;;;6.45;97.88
51359;BME280;37448;51.588;7.248;2023-02-21T09:03:56;101377.50;;;6.47;97.26
51359;BME280;37448;51.588;7.248;2023-02-21T09:05:57;101368.84;;;6.44;97.83
51359;BME280;37448;51.588;7.248;2023-02-21T09:07:59;101374.88;;;6.43;98.05
51359;BME280;37448;51.588;7.248;2023-02-21T09:10:01;101376.63;;;6.44;97.91
51359;BME280;37448;51.588;7.248;2023-02-21T09:12:01;101374.81;;;6.34;97.69
51359;BME280;37448;51.588;7.248;2023-02-21T09:14:02;101374.00;;;6.41;97.79
51359;BME280;37448;51.588;7.248;2023-02-21T09:16:05;101373.06;;;6.32;97.80
51359;BME280;37448;51.588;7.248;2023-02-21T09:18:05;101372.28;;;6.40;98.02
51359;BME280;37448;51.588;7.248;2023-02-21T09:20:07;101377.41;;;6.37;98.09
51359;BME280;37448;51.588;7.248;2023-02-21T09:22:09;101374.81;;;6.37;97.92
51359;BME280;37448;51.588;7.248;2023-02-21T09:24:10;101380.06;;;6.44;98.34
51359;BME280;37448;51.588;7.248;2023-02-21T09:26:10;101375.72;;;6.40;98.16
51359;BME280;37448;51.588;7.248;2023-02-21T09:28:11;101375.72;;;6.40;98.51
51359;BME280;37448;51.588;7.248;2023-02-21T09:30:15;101380.91;;;6.40;98.58
51359;BME280;37448;51.588;7.248;2023-02-21T09:32:15;101386.91;;;6.35;98.13
51359;BME280;37448;51.588;7.248;2023-02-21T09:34:16;101380.91;;;6.40;98.21
51359;BME280;37448;51.588;7.248;2023-02-21T09:36:16;101373.97;;;6.36;97.88
51359;BME280;37448;51.588;7.248;2023-02-21T09:38:22;101370.47;;;6.36;98.04
51359;BME280;37448;51.588;7.248;2023-02-21T09:40:26;101368.78;;;6.36;97.85
51359;BME280;37448;51.588;7.248;2023-02-21T09:42:30;101372.22;;;6.32;98.26
51359;BME280;37448;51.588;7.248;2023-02-21T09:44:31;101377.41;;;6.37;98.08
51359;BME280;37448;51.588;7.248;2023-02-21T09:46:38;101377.47;;;6.41;98.34
51359;BME280;37448;51.588;7.248;2023-02-21T09:48:41;101367.97;;;6.42;98.64
51359;BME280;37448;51.588;7.248;2023-02-21T09:50:47;101367.13;;;6.46;98.30
51359;BME280;37448;51.588;7.248;2023-02-21T09:52:48;101372.31;;;6.46;98.49
51359;BME280;37448;51.588;7.248;2023-02-21T09:54:55;101374.06;;;6.50;98.39
51359;BME280;37448;51.588;7.248;2023-02-21T09:56:59;101370.63;;;6.54;98.14
51359;BME280;37448;51.588;7.248;2023-02-21T09:59:00;101371.50;;;6.53;98.76
51359;BME280;37448;51.588;7.248;2023-02-21T10:01:05;101374.94;;;6.49;98.10
51359;BME280;37448;51.588;7.248;2023-02-21T10:05:38;101374.97;;;6.54;98.39
51359;BME280;37448;51.588;7.248;2023-02-21T10:12:09;101373.19;;;6.50;98.12
51359;BME280;37448;51.588;7.248;2023-02-21T10:19:30;101373.22;;;6.54;98.19
51359;BME280;37448;51.588;7.248;2023-02-21T10:21:37;101381.91;;;6.55;98.14
51359;BME280;37448;51.588;7.248;2023-02-21T10:23:43;101378.50;;;6.64;98.33
51359;BME280;37448;51.588;7.248;2023-02-21T10:25:45;101373.31;;;6.64;98.27
51359;BME280;37448;51.588;7.248;2023-02-21T10:27:46;101377.66;;;6.68;98.17
51359;BME280;37448;51.588;7.248;2023-02-21T10:32:00;101375.09;;;6.74;98.04
51359;BME280;37448;51.588;7.248;2023-02-21T10:34:05;101387.22;;;6.78;98.07
51359;BME280;37448;51.588;7.248;2023-02-21T10:36:16;101382.00;;;6.75;97.46
51359;BME280;37448;51.588;7.248;2023-02-21T10:38:23;101376.84;;;6.78;97.26
51359;BME280;37448;51.588;7.248;2023-02-21T10:40:35;101381.13;;;6.74;97.54
51359;BME280;37448;51.588;7.248;2023-02-21T10:42:41;101388.09;;;6.80;97.85
51359;BME280;37448;51.588;7.248;2023-02-21T10:44:42;101384.63;;;6.78;97.80
51359;BME280;37448;51.588;7.248;2023-02-21T10:46:51;101380.31;;;6.83;97.61
51359;BME280;37448;51.588;7.248;2023-02-21T10:48:58;101378.59;;;6.82;97.46
51359;BME280;37448;51.588;7.248;2023-02-21T10:51:16;101383.78;;;6.85;97.98
51359;BME280;37448;51.588;7.248;2023-02-21T10:53:29;101373.41;;;6.85;97.46
51359;BME280;37448;51.588;7.248;2023-02-21T10:55:30;101381.19;;;6.81;97.21
51359;BME280;37448;51.588;7.248;2023-02-21T10:57:31;101384.69;;;6.86;97.66
51359;BME280;37448;51.588;7.248;2023-02-21T10:59:38;101381.25;;;6.93;97.90
51359;BME280;37448;51.588;7.248;2023-02-21T11:01:45;101375.22;;;6.99;98.01
51359;BME280;37448;51.588;7.248;2023-02-21T11:03:48;101387.31;;;6.94;97.49
51359;BME280;37448;51.588;7.248;2023-02-21T11:05:51;101389.06;;;6.98;97.57
51359;BME280;37448;51.588;7.248;2023-02-21T11:08:04;101381.28;;;6.98;97.88
51359;BME280;37448;51.588;7.248;2023-02-21T11:10:32;101376.09;;;6.98;97.73
51359;BME280;37448;51.588;7.248;2023-02-21T11:12:33;101379.59;;;7.01;98.13
51359;BME280;37448;51.588;7.248;2023-02-21T11:14:33;101374.38;;;7.03;97.80
51359;BME280;37448;51.588;7.248;2023-02-21T11:16:34;101371.78;;;7.03;97.33
51359;BME280;37448;51.588;7.248;2023-02-21T11:18:35;101382.13;;;6.94;96.92
51359;BME280;37448;51.588;7.248;2023-02-21T11:20:36;101370.94;;;7.02;97.55
51359;BME280;37448;51.588;7.248;2023-02-21T11:22:41;101364.88;;;7.00;97.65
51359;BME280;37448;51.588;7.248;2023-02-21T11:26:58;101373.50;;;6.99;96.82
51359;BME280;37448;51.588;7.248;2023-02-21T11:29:09;101367.47;;;7.08;97.41
51359;BME280;37448;51.588;7.248;2023-02-21T11:31:17;101366.56;;;7.00;96.54
51359;BME280;37448;51.588;7.248;2023-02-21T11:33:22;101374.38;;;7.06;96.21
51359;BME280;37448;51.588;7.248;2023-02-21T11:37:25;101370.94;;;7.10;97.04
51359;BME280;37448;51.588;7.248;2023-02-21T11:39:32;101372.69;;;7.13;96.62
51359;BME280;37448;51.588;7.248;2023-02-21T11:41:37;101367.47;;;7.03;96.10
51359;BME280;37448;51.588;7.248;2023-02-21T11:43:54;101372.66;;;7.05;95.94
51359;BME280;37448;51.588;7.248;2023-02-21T11:46:15;101368.34;;;7.10;96.45
51359;BME280;37448;51.588;7.248;2023-02-21T11:48:17;101363.19;;;7.18;97.34
51359;BME280;37448;51.588;7.248;2023-02-21T11:52:26;101356.28;;;7.18;96.88
51359;BME280;37448;51.588;7.248;2023-02-21T11:54:29;101367.50;;;7.16;96.62